Data for 08/23/2009

Time Sea-Level Adjusted Pressure Absolute Pressure Temperature Relative Humidity Dew Point   
(mb) (inHg) (mb) (inHg) (C) (F) (%) (C) (F)
00:05 1016 30 845 24.95 19.7 67.5 44 7.2 44.9
00:10 1016 30 845 24.95 19.4 67 45 7.4 45.3
00:15 1016 30 845 24.95 18.5 65.4 50 8.1 46.6
00:20 1016 30 845 24.95 18.2 64.7 47 6.9 44.4
00:25 1016 30 845 24.95 18.9 66 45 7 44.5
00:30 1016 30 845 24.95 18.8 65.9 49 8.1 46.5
00:35 1016 30 845 24.95 18.5 65.3 48 7.4 45.3
00:40 1016 30 845 24.95 18.6 65.5 48 7.4 45.2
00:45 1016 30 845 24.95 18.4 65.1 47 6.9 44.4
00:50 1016 30 845 24.95 18.5 65.3 46 6.7 44.1
00:55 1016 30 845 24.95 18.5 65.4 46 6.9 44.4
01:00 1016 30 845 24.95 18.6 65.4 50 7.9 46.3
01:05 1016 30 845 24.95 18.5 65.2 46 6.7 44
01:10 1016 30 845 24.95 18.4 65.1 47 7 44.5
01:15 1016 30 845 24.95 18.3 64.9 46 6.7 44
01:20 1016 30 845 24.95 18.1 64.6 46 6.4 43.5
01:25 1016 30 845 24.95 18.2 64.8 46 6.5 43.7
01:30 1016 30 845 24.95 18.2 64.8 46 6.5 43.7
01:35 1016 30 845 24.95 18.1 64.6 46 6.5 43.7
01:40 1016 30 845 24.95 18.1 64.6 45 6.2 43.2
01:45 1016 30 845 24.95 18.2 64.7 46 6.4 43.6
01:50 1016 30 845 24.95 18.3 65 44 6 42.8
01:55 1016 30 845 24.95 18.5 65.3 44 6.1 43
02:00 1016 30 845 24.95 18.6 65.4 44 6.2 43.2
02:05 1016 30 845 24.95 18.5 65.2 45 6.4 43.5
02:10 1016 30 845 24.95 18.4 65.1 44 5.9 42.7
02:15 1016 30 845 24.95 18.5 65.3 44 6 42.9
02:20 1016 30 845 24.95 18.5 65.2 47 7.1 44.8
02:25 1016 30 845 24.95 18.4 65.1 44 6 42.9
02:30 1016 30 845 24.95 18.5 65.2 42 5.4 41.6
02:35 1016 30 845 24.95 18.8 65.9 43 6.3 43.3
02:40 1016 30 845 24.95 18.8 65.8 42 5.9 42.6
02:45 1016 30 845 24.95 18.6 65.5 44 6.2 43.2
02:50 1016 30 845 24.95 18.3 64.9 46 6.6 43.9
02:55 1016 30 845 24.95 18.1 64.6 45 6.2 43.1
03:00 1016 30 845 24.95 18.1 64.5 49 7.4 45.3
03:05 1016 30 845 24.95 18 64.3 48 7 44.5
03:10 1016 30 845 24.95 17.9 64.3 49 7.1 44.9
03:15 1016 30 845 24.95 18.1 64.6 46 6.4 43.5
03:20 1016 30 845 24.95 18.3 65 48 7.3 45.2
03:25 1016 30 845 24.95 17.9 64.2 54 8.5 47.2
03:30 1016 30 845 24.95 17.7 63.8 49 6.9 44.5
03:35 1016 30 845 24.95 17.8 64 48 6.6 44
03:40 1016 30 845 24.95 17.9 64.3 48 6.9 44.4
03:45 1016 30 845 24.95 17.7 63.9 51 7.6 45.7
03:50 1016 30 845 24.95 17.6 63.6 50 7.2 45
03:55 1016 30 845 24.95 17.6 63.8 52 7.9 46.2
04:00 1016 30 845 24.95 17.5 63.5 49 6.9 44.3
04:05 1016 30 845 24.95 17.6 63.6 52 7.7 45.8
04:10 1016 30 845 24.95 17.3 63.1 52 7.4 45.4
04:15 1016 30 845 24.95 17 62.6 49 6.5 43.6
04:20 1016 30 845 24.95 17.4 63.3 47 6.1 43.1
04:25 1016 30 845 24.95 17.4 63.4 49 6.7 44
04:30 1016 30 845 24.95 17.2 63 49 6.4 43.6
04:35 1016 30 845 24.95 17.2 62.9 50 6.8 44.2
04:40 1016 30 845 24.95 16.9 62.4 51 6.9 44.4
04:45 1016 30 845 24.95 16.8 62.2 50 6.4 43.5
04:50 1016 30 845 24.95 17.2 62.9 51 7.2 44.9
04:55 1016 30 845 24.95 17 62.6 50 6.5 43.8
05:00 1016 30 845 24.95 16.9 62.4 49 6.3 43.3
05:05 1016 30 845 24.95 16.9 62.5 49 6.4 43.5
05:10 1016 30 845 24.95 17 62.5 49 6.4 43.5
05:15 1016 30 845 24.95 17 62.5 49 6.3 43.3
05:20 1016 30 845 24.95 16.9 62.5 50 6.5 43.7
05:25 1016 30 845 24.95 16.8 62.2 49 6.2 43.2
05:30 1016 30 845 24.95 17.1 62.8 47 5.9 42.7
05:35 1016 30 845 24.95 17 62.6 50 6.6 43.9
05:40 1016 30 845 24.95 16.6 61.9 51 6.6 43.9
05:45 1016 30 845 24.95 16.5 61.6 52 6.7 44
05:50 1016 30 845 24.95 16.3 61.3 53 6.8 44.2
05:55 1016 30 845 24.95 16.1 60.9 54 6.8 44.2
06:00 1016 30 845 24.95 15.8 60.5 54 6.7 44.1
06:05 1016 30 845 24.95 15.8 60.4 54 6.7 44
06:10 1016 30 845 24.95 15.8 60.5 54 6.7 44
06:15 1016 30 845 24.95 15.8 60.5 53 6.5 43.7
06:20 1016 30 845 24.95 16.1 60.9 51 6 42.9
06:25 1016 30 845 24.95 16.3 61.4 53 6.8 44.2
06:30 1016 30 845 24.95 16 60.7 55 7 44.6
06:35 1016 30 845 24.95 15.8 60.4 54 6.6 43.9
06:40 1016 30 845 24.95 15.8 60.4 53 6.3 43.4
06:45 1016 30 845 24.95 15.8 60.5 52 6.2 43.1
06:50 1016 30 845 24.95 16.1 60.9 52 6.4 43.6
06:55 1016 30 845 24.95 15.8 60.5 54 6.5 43.7
07:00 1016 30 845 24.95 15.7 60.3 53 6.3 43.3
07:05 1016 30 845 24.95 16 60.9 52 6.4 43.5
07:10 1016 30 845 24.95 16.3 61.3 53 6.7 44.1
07:15 1016 30 845 24.95 16.1 61 56 7.5 45.5
07:20 1016 30 846 24.98 15.5 59.9 59 7.7 45.8
07:25 1016 30 846 24.98 15.7 60.2 57 7.3 45.1
07:30 1016 30 846 24.98 16.3 61.3 54 7.1 44.8
07:35 1016 30 846 24.98 16.1 61.1 56 7.5 45.4
07:40 1016 30 846 24.98 15.7 60.3 59 7.7 45.9
07:45 1016 30 846 24.98 15.4 59.7 59 7.4 45.3
07:50 1016 30 846 24.98 15.8 60.4 56 7.2 44.9
07:55 1016 30 846 24.98 16.1 60.9 58 8 46.3
08:00 1017 30.03 846 24.98 16.4 61.6 55 7.5 45.5
08:05 1017 30.03 846 24.98 16.7 62.1 56 8 46.3
08:10 1017 30.03 846 24.98 16.8 62.2 57 8.4 47.1
08:15 1017 30.03 846 24.98 16.8 62.3 58 8.6 47.5
08:20 1017 30.03 846 24.98 16.7 62 59 8.6 47.5
08:25 1017 30.03 846 24.98 16.7 62 59 8.6 47.5
08:30 1017 30.03 846 24.98 16.7 62 59 8.7 47.6
08:35 1017 30.03 846 24.98 16.7 62.1 60 8.9 48.1
08:40 1017 30.03 846 24.98 16.7 62.1 59 8.8 47.8
08:45 1017 30.03 846 24.98 16.7 62 63 9.6 49.3
08:50 1017 30.03 846 24.98 16.5 61.6 62 9.2 48.6
08:55 1017 30.03 846 24.98 16.3 61.3 64 9.6 49.3
09:00 1016 30 846 24.98 16.3 61.4 65 9.7 49.5
09:05 1016 30 846 24.98 16.4 61.4 65 9.9 49.8
09:10 1016 30 846 24.98 16.3 61.4 68 10.4 50.7
09:15 1016 30 846 24.98 16.4 61.5 65 9.9 49.9
09:20 1016 30 845 24.95 16.6 61.9 66 10.2 50.4
09:25 1016 30 845 24.95 16.6 61.8 63 9.5 49.2
09:30 1016 30 845 24.95 16.6 61.8 63 9.6 49.3
09:35 1016 30 845 24.95 16.7 62 61 9.3 48.7
09:40 1016 30 845 24.95 17 62.5 59 9.1 48.4
09:45 1016 30 845 24.95 17.3 63.2 61 9.8 49.6
09:50 1016 30 845 24.95 17.6 63.7 57 9.2 48.5
09:55 1016 30 846 24.98 17.8 64 60 10.1 50.1
10:00 1017 30.03 846 24.98 17.8 64.1 60 10.1 50.2
10:05 1017 30.03 846 24.98 17.9 64.2 59 9.9 49.7
10:10 1017 30.03 846 24.98 18.1 64.5 59 10 50.1
10:15 1017 30.03 846 24.98 18.3 65 59 10.3 50.6
10:20 1017 30.03 846 24.98 18.6 65.4 60 10.7 51.3
10:25 1017 30.03 846 24.98 18.1 64.6 66 11.6 52.9
10:30 1017 30.03 846 24.98 18 64.4 62 10.7 51.3
10:35 1017 30.03 846 24.98 17.9 64.1 63 10.8 51.4
10:40 1016 30 846 24.98 18 64.5 60 10.3 50.6
10:45 1017 30.03 846 24.98 18.3 65 59 10.4 50.7
10:50 1017 30.03 846 24.98 18.9 65.9 57 10.3 50.5
10:55 1017 30.03 846 24.98 19.6 67.2 55 10.4 50.8
11:00 1017 30.03 846 24.98 19.6 67.3 55 10.4 50.7
11:05 1017 30.03 846 24.98 19.9 67.8 57 11.2 52.1
11:10 1017 30.03 846 24.98 20 67.9 50 9.2 48.6
11:15 1017 30.03 846 24.98 19.9 67.9 52 10 50
11:20 1017 30.03 846 24.98 20.4 68.6 51 10 49.9
11:25 1017 30.03 846 24.98 21.2 70.1 47 9.6 49.2
11:30 1017 30.03 846 24.98 21.7 71.1 44 9.2 48.6
11:35 1017 30.03 846 24.98 22.2 71.9 45 10 50
11:40 1017 30.03 846 24.98 21.9 71.3 46 10 50.1
11:45 1017 30.03 846 24.98 21.7 71.1 48 10.4 50.8
11:50 1017 30.03 846 24.98 21.6 70.9 47 10.1 50.2
11:55 1017 30.03 846 24.98 21.6 70.8 47 10 50
12:00 1017 30.03 846 24.98 21.5 70.7 50 10.8 51.4
12:05 1017 30.03 846 24.98 21.6 71 49 10.6 51.2
12:10 1017 30.03 846 24.98 21.8 71.3 49 10.8 51.5
12:15 1017 30.03 846 24.98 21.9 71.3 50 11.1 51.9
12:20 1017 30.03 846 24.98 21.8 71.3 49 10.7 51.2
12:25 1017 30.03 846 24.98 21.8 71.2 47 10.2 50.4
12:30 1017 30.03 846 24.98 21.5 70.7 51 11.1 52
12:35 1017 30.03 846 24.98 21.4 70.5 54 11.8 53.2
12:40 1017 30.03 846 24.98 21.2 70.2 55 12 53.5
12:45 1017 30.03 846 24.98 20.9 69.6 57 12.3 54.2
12:50 1017 30.03 846 24.98 20.6 69 60 12.7 54.9
12:55 1017 30.03 846 24.98 20.6 69.1 55 11.3 52.4
13:00 1017 30.03 846 24.98 20.7 69.2 59 12.5 54.4
13:05 1017 30.03 846 24.98 20.7 69.2 63 13.4 56.2
13:10 1017 30.03 846 24.98 21 69.9 60 13 55.4
13:15 1017 30.03 846 24.98 21.3 70.4 57 12.6 54.7
13:20 1017 30.03 846 24.98 21.8 71.2 56 12.7 54.9
13:25 1017 30.03 846 24.98 22 71.6 55 12.7 54.9
13:30 1017 30.03 846 24.98 21.5 70.8 52 11.4 52.5
13:35 1017 30.03 846 24.98 21.1 69.9 53 11.3 52.3
13:40 1017 30.03 846 24.98 21.2 70.1 49 10.3 50.5
13:45 1017 30.03 846 24.98 21.3 70.3 52 11.1 52.1
13:50 1017 30.03 846 24.98 21.4 70.4 51 11 51.8
13:55 1017 30.03 846 24.98 21.2 70.2 52 11.1 52
14:00 1017 30.03 847 25.01 21 69.8 56 12.1 53.7
14:05 1017 30.03 847 25.01 20.3 68.5 59 12.2 53.9
14:10 1018 30.06 847 25.01 19.8 67.6 63 12.6 54.6
14:15 1018 30.06 847 25.01 19.5 67.1 65 12.8 55
14:20 1018 30.06 847 25.01 19.2 66.6 67 13.1 55.6
14:25 1018 30.06 847 25.01 19 66.2 68 13.2 55.7
14:30 1018 30.06 847 25.01 18.9 65.9 68 12.9 55.2
14:35 1018 30.06 847 25.01 18.7 65.6 67 12.5 54.6
14:40 1018 30.06 847 25.01 18.5 65.2 69 12.9 55.1
14:45 1018 30.06 847 25.01 18.3 64.9 72 13.2 55.8
14:50 1018 30.06 847 25.01 18.1 64.5 73 13.3 55.9
14:55 1018 30.06 847 25.01 17.8 64 73 13 55.4
15:00 1018 30.06 847 25.01 17.5 63.5 77 13.4 56.1
15:05 1018 30.06 847 25.01 17.3 63.1 78 13.5 56.2
15:10 1018 30.06 847 25.01 17 62.5 77 13 55.4
15:15 1018 30.06 848 25.04 16.6 61.8 79 12.9 55.2
15:20 1018 30.06 848 25.04 16.1 60.9 79 12.4 54.2
15:25 1018 30.06 848 25.04 15.7 60.2 81 12.5 54.5
15:30 1019 30.09 848 25.04 15.5 59.8 82 12.5 54.4
15:35 1018 30.06 848 25.04 15.4 59.6 83 12.6 54.7
15:40 1018 30.06 848 25.04 15.3 59.5 83 12.5 54.6
15:45 1018 30.06 848 25.04 15.2 59.4 83 12.4 54.3
15:50 1018 30.06 847 25.01 15.1 59.2 83 12.3 54.1
15:55 1018 30.06 848 25.04 15.1 59.1 83 12.2 53.9
16:00 1018 30.06 848 25.04 14.9 58.9 84 12.2 54
16:05 1018 30.06 848 25.04 14.9 58.7 85 12.4 54.3
16:10 1018 30.06 848 25.04 14.8 58.6 84 12.2 54
16:15 1018 30.06 848 25.04 14.6 58.2 85 12.2 53.9
16:20 1018 30.06 848 25.04 14.5 58.2 87 12.3 54.2
16:25 1018 30.06 848 25.04 14.4 58 87 12.3 54.1
16:30 1018 30.06 848 25.04 14.4 58 86 12.1 53.8
16:35 1018 30.06 848 25.04 14.2 57.5 88 12.2 53.9
16:40 1018 30.06 848 25.04 14.1 57.3 89 12.2 54
16:45 1018 30.06 848 25.04 14 57.3 88 12.2 53.9
16:50 1018 30.06 848 25.04 14 57.1 87 11.8 53.3
16:55 1018 30.06 848 25.04 14 57.2 87 11.8 53.3
17:00 1018 30.06 847 25.01 14.1 57.3 88 12.1 53.8
17:05 1018 30.06 847 25.01 14 57.2 87 11.8 53.3
17:10 1018 30.06 847 25.01 14 57.1 86 11.7 53.1
17:15 1018 30.06 847 25.01 14 57.2 87 11.9 53.4
17:20 1018 30.06 847 25.01 14 57.3 86 11.8 53.2
17:25 1018 30.06 847 25.01 14.1 57.3 86 11.7 53
17:30 1018 30.06 847 25.01 14.1 57.3 86 11.8 53.2
17:35 1018 30.06 847 25.01 14.1 57.3 85 11.7 53
17:40 1018 30.06 847 25.01 14 57.3 84 11.4 52.5
17:45 1018 30.06 847 25.01 14 57.2 85 11.5 52.7
17:50 1018 30.06 847 25.01 14.1 57.3 86 11.7 53
17:55 1018 30.06 847 25.01 14.2 57.5 86 12 53.6
18:00 1018 30.06 847 25.01 14.1 57.3 87 12 53.7
18:05 1018 30.06 847 25.01 14 57.3 88 12 53.7
18:10 1018 30.06 847 25.01 14 57.1 89 12.1 53.8
18:15 1018 30.06 847 25.01 14 57.1 89 12.2 53.9
18:20 1017 30.03 847 25.01 13.9 57.1 89 12.2 54
18:25 1017 30.03 846 24.98 14 57.2 89 12.3 54.1
18:30 1017 30.03 846 24.98 14 57.3 88 12.1 53.8
18:35 1017 30.03 846 24.98 14.1 57.4 88 12.1 53.8
18:40 1017 30.03 846 24.98 14.1 57.3 89 12.3 54.1
18:45 1017 30.03 846 24.98 14 57.2 89 12.3 54.2
18:50 1017 30.03 846 24.98 14 57.2 89 12.2 54
18:55 1017 30.03 846 24.98 13.9 57 89 12.2 54
19:00 1017 30.03 846 24.98 13.9 57 90 12.3 54.1
19:05 1017 30.03 846 24.98 13.8 56.8 90 12.1 53.8
19:10 1017 30.03 846 24.98 13.7 56.7 90 12.1 53.8
19:15 1017 30.03 846 24.98 13.7 56.7 91 12.2 53.9
19:20 1017 30.03 846 24.98 13.6 56.6 90 12.1 53.8
19:25 1016 30 846 24.98 13.6 56.5 89 11.9 53.4
19:30 1016 30 846 24.98 13.7 56.6 89 12 53.5
19:35 1017 30.03 846 24.98 13.7 56.6 89 11.9 53.5
19:40 1017 30.03 846 24.98 13.7 56.6 89 11.8 53.3
19:45 1017 30.03 846 24.98 13.7 56.7 87 11.6 52.8
19:50 1017 30.03 846 24.98 13.7 56.6 87 11.6 52.8
19:55 1017 30.03 846 24.98 13.6 56.5 88 11.6 52.9
20:00 1017 30.03 846 24.98 13.6 56.4 88 11.7 53
20:05 1017 30.03 846 24.98 13.5 56.3 89 11.7 53
20:10 1017 30.03 846 24.98 13.4 56.2 90 11.9 53.3
20:15 1017 30.03 846 24.98 13.4 56.2 90 11.8 53.2
20:20 1017 30.03 846 24.98 13.4 56.1 90 11.8 53.3
20:25 1017 30.03 846 24.98 13.3 55.9 89 11.5 52.7
20:30 1017 30.03 846 24.98 13.4 56.1 89 11.6 53
20:35 1017 30.03 846 24.98 13.4 56.1 89 11.6 52.8
20:40 1017 30.03 846 24.98 13.4 56 89 11.6 52.9
20:45 1017 30.03 846 24.98 13.4 56 89 11.6 52.8
20:50 1017 30.03 846 24.98 13.4 56.1 88 11.5 52.7
20:55 1017 30.03 846 24.98 13.4 56.2 87 11.4 52.5
21:00 1017 30.03 846 24.98 13.5 56.3 88 11.6 52.9
21:05 1017 30.03 846 24.98 13.4 56.1 89 11.5 52.8
21:10 1017 30.03 846 24.98 13.3 56 89 11.6 52.9
21:15 1017 30.03 846 24.98 13.3 55.9 89 11.6 52.8
21:20 1017 30.03 846 24.98 13.3 56 90 11.7 53
21:25 1017 30.03 846 24.98 13.4 56.1 90 11.9 53.4
21:30 1017 30.03 846 24.98 13.4 56.1 90 11.7 53.1
21:35 1017 30.03 846 24.98 13.3 55.9 90 11.7 53.1
21:40 1017 30.03 847 25.01 13.3 55.9 92 11.9 53.5
21:45 1017 30.03 846 24.98 13.2 55.8 91 11.9 53.4
21:50 1017 30.03 846 24.98 13.2 55.7 91 11.7 53.1
21:55 1017 30.03 846 24.98 13.2 55.7 91 11.8 53.2
22:00 1017 30.03 846 24.98 13 55.5 93 11.9 53.4
22:05 1017 30.03 846 24.98 12.9 55.3 94 12 53.6
22:10 1017 30.03 846 24.98 13.1 55.5 93 12 53.6
22:15 1017 30.03 846 24.98 13.2 55.7 91 11.8 53.2
22:20 1017 30.03 846 24.98 13.3 55.9 91 11.9 53.4
22:25 1017 30.03 846 24.98 13.1 55.6 92 11.8 53.2
22:30 1017 30.03 846 24.98 13.1 55.5 91 11.6 52.9
22:35 1017 30.03 846 24.98 13 55.5 92 11.8 53.2
22:40 1017 30.03 846 24.98 12.9 55.2 93 11.8 53.3
22:45 1017 30.03 846 24.98 12.8 55 93 11.7 53
22:50 1017 30.03 846 24.98 12.8 55 93 11.7 53.1
22:55 1017 30.03 846 24.98 12.8 55 93 11.7 53.1
23:00 1017 30.03 846 24.98 12.7 54.8 93 11.6 52.9
23:05 1017 30.03 846 24.98 12.7 54.8 93 11.5 52.8
23:10 1017 30.03 846 24.98 12.7 54.9 92 11.5 52.6
23:15 1017 30.03 846 24.98 12.8 55.1 90 11.3 52.3
23:20 1017 30.03 846 24.98 12.9 55.3 90 11.4 52.5
23:25 1017 30.03 846 24.98 13 55.3 91 11.5 52.8
23:30 1017 30.03 846 24.98 12.9 55.3 91 11.5 52.6
23:35 1017 30.03 846 24.98 12.9 55.3 92 11.6 52.9
23:40 1017 30.03 846 24.98 12.9 55.2 92 11.6 52.8
23:45 1017 30.03 846 24.98 12.9 55.2 92 11.6 52.8
23:50 1017 30.03 846 24.98 12.9 55.2 91 11.5 52.7
23:55 1017 30.03 846 24.98 12.9 55.2 92 11.6 52.8
24:00 1017 30.03 846 24.98 12.8 55.1 91 11.4 52.5